createdAt,value
2022-08-03T00:02:25.514Z,65.85
2022-08-03T00:04:57.357Z,65.90
2022-08-03T00:07:28.783Z,66.30
2022-08-03T00:10:00.543Z,65.91
2022-08-03T00:12:32.068Z,65.87
2022-08-03T00:15:03.488Z,65.46
2022-08-03T00:17:52.650Z,65.27
2022-08-03T00:20:25.671Z,65.67
2022-08-03T00:22:57.440Z,65.78
2022-08-03T00:25:30.020Z,65.95
2022-08-03T00:28:01.740Z,66.16
2022-08-03T00:30:33.483Z,66.68
2022-08-03T00:33:05.392Z,66.72
2022-08-03T00:35:50.461Z,66.70
2022-08-03T00:38:22.993Z,67.32
2022-08-03T00:40:54.536Z,67.77
2022-08-03T00:43:28.481Z,67.93
2022-08-03T00:45:59.803Z,67.84
2022-08-03T00:48:33.707Z,67.74
2022-08-03T00:51:06.289Z,67.34
2022-08-03T00:53:38.662Z,67.13
2022-08-03T00:56:11.183Z,67.77
2022-08-03T00:58:43.318Z,67.35
2022-08-03T01:01:15.657Z,67.40
2022-08-03T01:03:47.821Z,68.07
2022-08-03T01:06:33.935Z,67.86
2022-08-03T01:09:11.278Z,67.38
2022-08-03T01:12:00.910Z,67.03
2022-08-03T01:14:40.339Z,67.51
2022-08-03T01:17:18.490Z,68.04
2022-08-03T01:20:01.876Z,68.06
2022-08-03T01:22:52.726Z,68.12
2022-08-03T01:25:36.750Z,68.18
2022-08-03T01:28:36.074Z,67.44
2022-08-03T01:31:14.164Z,67.13
2022-08-03T01:33:51.419Z,67.51
2022-08-03T01:36:31.970Z,68.10
2022-08-03T01:39:09.825Z,68.89
2022-08-03T01:41:50.696Z,69.00
2022-08-03T01:44:30.182Z,69.25
2022-08-03T01:47:07.897Z,68.93
2022-08-03T01:49:46.131Z,68.64
2022-08-03T01:52:22.952Z,68.37
2022-08-03T01:54:57.758Z,68.88
2022-08-03T01:57:33.105Z,69.43
2022-08-03T02:00:28.387Z,69.10
2022-08-03T02:03:04.492Z,68.81
2022-08-03T02:05:41.459Z,68.29
2022-08-03T02:08:20.081Z,67.81
2022-08-03T02:10:54.414Z,67.41
2022-08-03T02:13:30.759Z,67.72
2022-08-03T02:16:07.730Z,68.07
2022-08-03T02:18:42.604Z,68.38
2022-08-03T02:21:55.785Z,68.65
2022-08-03T02:24:11.552Z,68.36
2022-08-03T02:26:46.534Z,67.93
2022-08-03T02:29:38.822Z,67.83
2022-08-03T02:32:19.789Z,67.78
2022-08-03T02:34:56.547Z,67.67
2022-08-03T02:37:33.825Z,67.68
2022-08-03T02:40:10.243Z,67.88
2022-08-03T02:42:46.161Z,67.90
2022-08-03T02:45:22.663Z,67.52
2022-08-03T02:48:02.444Z,67.57
2022-08-03T02:50:37.190Z,67.81
2022-08-03T02:53:12.889Z,67.90
2022-08-03T02:55:48.816Z,68.21
2022-08-03T02:58:25.931Z,67.95
2022-08-03T03:01:00.609Z,67.74
2022-08-03T03:03:44.639Z,67.59
2022-08-03T03:06:19.500Z,67.76
2022-08-03T03:08:59.451Z,67.75
2022-08-03T03:11:32.365Z,68.19
2022-08-03T03:14:04.374Z,68.17
2022-08-03T03:16:41.685Z,68.12
2022-08-03T03:19:15.811Z,67.96
2022-08-03T03:21:47.981Z,68.45
2022-08-03T03:24:19.790Z,68.49
2022-08-03T03:26:51.865Z,68.50
2022-08-03T03:29:23.616Z,68.70
2022-08-03T03:31:55.787Z,69.08
2022-08-03T03:34:32.322Z,68.93
2022-08-03T03:37:09.265Z,68.55
2022-08-03T03:39:44.955Z,68.37
2022-08-03T03:42:16.733Z,68.80
2022-08-03T03:44:48.825Z,68.64
2022-08-03T03:47:32.703Z,68.49
2022-08-03T03:50:07.134Z,67.95
2022-08-03T03:52:39.433Z,68.10
2022-08-03T03:55:11.886Z,68.52
2022-08-03T03:57:43.437Z,68.55
2022-08-03T04:00:18.222Z,67.91
2022-08-03T04:02:50.264Z,67.72
2022-08-03T04:05:42.996Z,67.75
2022-08-03T04:08:36.388Z,67.45
2022-08-03T04:11:13.188Z,66.82
2022-08-03T04:13:51.252Z,66.54
2022-08-03T04:16:26.785Z,66.48
2022-08-03T04:19:03.315Z,66.60
2022-08-03T04:21:39.725Z,66.59
2022-08-03T04:24:15.228Z,66.55
2022-08-03T04:26:52.921Z,67.01
2022-08-03T04:29:27.591Z,67.58
2022-08-03T04:32:01.631Z,68.03
2022-08-03T04:34:35.234Z,67.64
2022-08-03T04:37:12.579Z,67.02
2022-08-03T04:39:46.177Z,66.76
2022-08-03T04:42:19.327Z,67.01
2022-08-03T04:44:52.283Z,67.24
2022-08-03T04:47:24.593Z,67.58
2022-08-03T04:49:56.959Z,66.79
2022-08-03T04:52:29.126Z,66.04
2022-08-03T04:55:00.770Z,65.52
2022-08-03T04:57:32.167Z,65.39
2022-08-03T05:00:03.870Z,65.14
2022-08-03T05:02:35.511Z,64.87
2022-08-03T05:05:07.611Z,64.47
2022-08-03T05:07:39.447Z,63.92
2022-08-03T05:10:15.759Z,63.92
2022-08-03T05:12:49.295Z,63.61
2022-08-03T05:15:20.973Z,62.43
2022-08-03T05:17:52.847Z,61.42
2022-08-03T05:20:24.394Z,60.41
2022-08-03T05:22:55.830Z,60.48
2022-08-03T05:25:27.655Z,60.74
2022-08-03T05:27:59.079Z,59.44
2022-08-03T05:30:33.828Z,58.30
2022-08-03T05:33:06.859Z,57.52
2022-08-03T05:36:00.819Z,57.42
2022-08-03T05:38:34.721Z,57.33
2022-08-03T05:41:22.294Z,56.71
2022-08-03T05:43:56.856Z,55.95
2022-08-03T05:46:28.577Z,54.72
2022-08-03T05:49:00.573Z,54.36
2022-08-03T05:51:32.007Z,54.03
2022-08-03T05:54:04.142Z,53.73
2022-08-03T05:56:35.628Z,53.18
2022-08-03T05:59:28.687Z,53.16
2022-08-03T06:01:58.759Z,52.71
2022-08-03T06:04:30.530Z,52.29
2022-08-03T06:07:02.138Z,51.72
2022-08-03T06:10:34.171Z,51.49
2022-08-03T06:12:25.662Z,51.23
2022-08-03T06:14:57.123Z,50.71
2022-08-03T06:17:28.787Z,50.67
2022-08-03T06:20:10.811Z,50.61
2022-08-03T06:22:50.801Z,51.12
2022-08-03T06:25:23.971Z,51.56
2022-08-03T06:27:55.688Z,51.40
2022-08-03T06:30:27.514Z,51.41
2022-08-03T06:32:59.334Z,52.03
2022-08-03T06:35:30.958Z,51.91
2022-08-03T06:38:03.097Z,51.81
2022-08-03T06:40:40.301Z,51.64
2022-08-03T06:43:12.845Z,51.45
2022-08-03T06:45:48.171Z,51.11
2022-08-03T06:48:20.090Z,50.50
2022-08-03T06:50:51.616Z,50.00
2022-08-03T06:53:23.358Z,50.23
2022-08-03T06:55:55.485Z,49.84
2022-08-03T06:58:27.268Z,49.99
2022-08-03T07:00:59.426Z,49.48
2022-08-03T07:03:30.912Z,49.40
2022-08-03T07:06:02.431Z,49.05
2022-08-03T07:08:34.991Z,48.42
2022-08-03T07:11:06.521Z,47.80
2022-08-03T07:13:38.491Z,47.05
2022-08-03T07:16:11.263Z,46.63
2022-08-03T07:18:43.439Z,46.16
2022-08-03T07:21:17.021Z,45.78
2022-08-03T07:23:48.563Z,45.84
2022-08-03T07:26:20.135Z,45.90
2022-08-03T07:28:52.119Z,45.49
2022-08-03T07:31:23.756Z,45.40
2022-08-03T07:33:55.342Z,45.50
2022-08-03T07:36:27.326Z,45.08
2022-08-03T07:38:59.707Z,44.67
2022-08-03T07:41:32.228Z,44.48
2022-08-03T07:44:03.727Z,44.65
2022-08-03T07:46:35.292Z,45.09
2022-08-03T07:49:07.223Z,44.93
2022-08-03T07:51:39.101Z,44.69
2022-08-03T07:54:11.651Z,44.68
2022-08-03T07:56:44.136Z,44.85
2022-08-03T07:59:15.607Z,45.16
2022-08-03T08:01:47.802Z,45.06
2022-08-03T08:04:19.277Z,45.55
2022-08-03T08:06:50.761Z,45.67
2022-08-03T08:09:22.310Z,45.47
2022-08-03T08:11:54.765Z,45.10
2022-08-03T08:14:26.591Z,45.03
2022-08-03T08:16:58.352Z,45.69
2022-08-03T08:19:30.168Z,46.06
2022-08-03T08:22:05.038Z,46.00
2022-08-03T08:24:37.376Z,46.27
2022-08-03T08:27:12.298Z,46.40
2022-08-03T08:29:47.941Z,46.78
2022-08-03T08:32:27.062Z,46.97
2022-08-03T08:34:58.695Z,46.94
2022-08-03T08:37:30.290Z,47.46
2022-08-03T08:40:02.020Z,48.09
2022-08-03T08:42:34.570Z,48.34
2022-08-03T08:45:09.200Z,48.56
2022-08-03T08:47:51.034Z,48.22
2022-08-03T08:50:27.890Z,47.42
2022-08-03T08:53:02.061Z,47.30
2022-08-03T08:55:58.624Z,46.57
2022-08-03T08:58:30.421Z,46.30
2022-08-03T09:01:00.431Z,45.77
2022-08-03T09:03:34.484Z,45.85
2022-08-03T09:06:07.084Z,45.46
2022-08-03T09:08:38.551Z,45.21
2022-08-03T09:11:12.049Z,44.55
2022-08-03T09:13:44.511Z,44.34
2022-08-03T09:16:21.323Z,44.09
2022-08-03T09:18:54.768Z,44.14
2022-08-03T09:21:32.524Z,44.07
2022-08-03T09:24:13.111Z,43.57
2022-08-03T09:26:54.541Z,43.14
2022-08-03T09:29:26.823Z,43.16
2022-08-03T09:32:04.376Z,42.73
2022-08-03T09:34:36.113Z,42.03
2022-08-03T09:37:17.643Z,41.75
2022-08-03T09:39:50.036Z,41.38
2022-08-03T09:42:23.776Z,40.89
2022-08-03T09:44:55.742Z,40.46
2022-08-03T09:47:34.051Z,39.91
2022-08-03T09:50:07.399Z,39.08
2022-08-03T09:52:51.881Z,38.66
2022-08-03T09:56:34.219Z,38.47
2022-08-03T09:58:16.958Z,39.51
2022-08-03T10:00:59.459Z,40.32
2022-08-03T10:03:32.792Z,40.34
2022-08-03T10:06:19.725Z,41.01
2022-08-03T10:09:06.035Z,40.88
2022-08-03T10:11:41.850Z,40.69
2022-08-03T10:14:19.697Z,40.74
2022-08-03T10:16:51.816Z,40.58
2022-08-03T10:19:23.420Z,39.97
2022-08-03T10:21:59.596Z,39.60
2022-08-03T10:24:36.033Z,39.11
2022-08-03T10:27:08.898Z,38.98
2022-08-03T10:29:47.869Z,39.43
2022-08-03T10:32:23.651Z,39.11
2022-08-03T10:34:59.889Z,38.79
2022-08-03T10:37:34.333Z,39.11
2022-08-03T10:40:08.601Z,39.28
2022-08-03T10:42:40.614Z,39.27
2022-08-03T10:45:20.161Z,38.87
2022-08-03T10:47:53.070Z,39.35
2022-08-03T10:50:27.441Z,39.83
2022-08-03T10:53:04.041Z,40.17
2022-08-03T10:55:55.405Z,39.96
2022-08-03T10:58:57.521Z,39.98
2022-08-03T11:02:00.173Z,39.97
2022-08-03T11:04:33.083Z,39.98
2022-08-03T11:07:25.622Z,40.39
2022-08-03T11:09:58.631Z,40.86
2022-08-03T11:12:32.513Z,41.10
2022-08-03T11:15:08.966Z,41.60
2022-08-03T11:17:46.204Z,41.35
2022-08-03T11:20:47.753Z,40.62
2022-08-03T11:24:03.469Z,40.02
2022-08-03T11:26:19.857Z,39.48
2022-08-03T11:28:51.888Z,40.03
2022-08-03T11:31:51.645Z,40.24
2022-08-03T11:34:24.951Z,40.24
2022-08-03T11:37:32.870Z,40.67
2022-08-03T11:40:05.619Z,41.01
2022-08-03T11:42:47.618Z,40.91
2022-08-03T11:45:20.162Z,41.17
2022-08-03T11:47:54.666Z,40.77
2022-08-03T11:50:27.048Z,41.02
2022-08-03T11:52:58.832Z,40.76
2022-08-03T11:55:32.533Z,40.29
2022-08-03T11:59:00.814Z,40.40
2022-08-03T12:01:04.928Z,40.61
2022-08-03T12:03:38.296Z,40.45
2022-08-03T12:06:13.506Z,40.41
2022-08-03T12:08:46.225Z,40.84
2022-08-03T12:11:19.246Z,41.14
2022-08-03T12:14:36.756Z,41.15
2022-08-03T12:16:48.620Z,40.97
2022-08-03T12:19:21.327Z,40.90
2022-08-03T12:21:57.109Z,40.73
2022-08-03T12:24:41.451Z,40.25
2022-08-03T12:27:13.685Z,40.29
2022-08-03T12:29:58.774Z,40.67
2022-08-03T12:32:31.748Z,40.79
2022-08-03T12:35:06.260Z,40.92
2022-08-03T12:37:38.411Z,41.11
2022-08-03T12:40:17.764Z,41.09
2022-08-03T12:42:51.857Z,41.01
2022-08-03T12:45:25.302Z,41.30
2022-08-03T12:47:59.785Z,41.11
2022-08-03T12:50:33.839Z,40.67
2022-08-03T12:53:07.960Z,40.46
2022-08-03T12:55:57.285Z,40.25
2022-08-03T12:58:37.023Z,40.16
2022-08-03T13:01:10.810Z,40.15
2022-08-03T13:03:50.394Z,40.16
2022-08-03T13:06:25.950Z,40.30
2022-08-03T13:09:08.259Z,40.37
2022-08-03T13:11:55.602Z,40.85
2022-08-03T13:14:31.879Z,40.72
2022-08-03T13:17:04.207Z,40.83
2022-08-03T13:19:36.886Z,40.68
2022-08-03T13:22:16.381Z,40.35
2022-08-03T13:24:49.900Z,40.61
2022-08-03T13:28:01.464Z,40.83
2022-08-03T13:30:14.505Z,41.06
2022-08-03T13:32:56.683Z,41.13
2022-08-03T13:35:31.173Z,40.83
2022-08-03T13:38:02.815Z,40.85
2022-08-03T13:40:41.661Z,40.45
2022-08-03T13:43:13.903Z,40.22
2022-08-03T13:45:51.265Z,40.28
2022-08-03T13:48:37.657Z,40.26
2022-08-03T13:51:11.664Z,40.27
2022-08-03T13:53:54.389Z,40.43
2022-08-03T13:56:26.246Z,40.51
2022-08-03T13:58:58.244Z,40.43
2022-08-03T14:01:53.612Z,40.30
2022-08-03T14:04:22.536Z,40.69
2022-08-03T14:06:54.255Z,40.24
2022-08-03T14:09:25.931Z,40.37
2022-08-03T14:12:07.603Z,40.09
2022-08-03T14:14:40.283Z,40.08
2022-08-03T14:17:12.138Z,39.93
2022-08-03T14:19:52.673Z,39.86
2022-08-03T14:22:25.355Z,39.92
2022-08-03T14:24:56.902Z,39.31
2022-08-03T14:27:29.227Z,39.16
2022-08-03T14:30:01.835Z,39.23
2022-08-03T14:32:33.952Z,39.59
2022-08-03T14:35:05.782Z,39.86
2022-08-03T14:37:37.656Z,40.25
2022-08-03T14:40:11.859Z,39.92
2022-08-03T14:42:43.329Z,39.69
2022-08-03T14:45:19.825Z,39.70
2022-08-03T14:50:30.562Z,39.70
2022-08-03T14:50:50.292Z,39.82
2022-08-03T14:53:25.765Z,40.05
2022-08-03T14:55:57.649Z,40.02
2022-08-03T14:58:29.272Z,40.14
2022-08-03T15:01:00.865Z,40.41
2022-08-03T15:03:32.391Z,40.44
2022-08-03T15:06:03.961Z,40.57
2022-08-03T15:08:35.628Z,40.44
2022-08-03T15:11:07.317Z,40.60
2022-08-03T15:13:39.318Z,40.76
2022-08-03T15:16:11.262Z,40.61
2022-08-03T15:18:42.764Z,40.32
2022-08-03T15:21:45.870Z,40.21
2022-08-03T15:24:07.471Z,40.16
2022-08-03T15:26:41.518Z,40.11
2022-08-03T15:30:07.283Z,40.11
2022-08-03T15:32:09.403Z,40.59
2022-08-03T15:34:41.911Z,40.68
2022-08-03T15:37:22.510Z,40.98
2022-08-03T15:39:59.659Z,41.13
2022-08-03T15:42:34.685Z,41.03
2022-08-03T15:45:07.713Z,41.06
2022-08-03T15:47:39.864Z,41.40
2022-08-03T15:50:12.829Z,41.49
2022-08-03T15:52:44.887Z,41.61
2022-08-03T15:55:18.262Z,41.49
2022-08-03T15:59:09.578Z,41.32
2022-08-03T16:00:44.778Z,41.01
2022-08-03T16:03:16.329Z,41.46
2022-08-03T16:05:48.388Z,41.39
2022-08-03T16:08:20.015Z,41.55
2022-08-03T16:10:52.235Z,41.48
2022-08-03T16:14:14.090Z,41.60
2022-08-03T16:16:17.023Z,41.57
2022-08-03T16:18:48.745Z,41.61
2022-08-03T16:21:21.750Z,41.40
2022-08-03T16:23:55.794Z,41.98
2022-08-03T16:26:29.519Z,42.09
2022-08-03T16:29:03.841Z,42.22
2022-08-03T16:31:55.055Z,42.29
2022-08-03T16:34:26.912Z,42.52
2022-08-03T16:36:58.781Z,42.70
2022-08-03T16:39:30.823Z,42.47
2022-08-03T16:42:03.628Z,42.80
2022-08-03T16:44:36.991Z,43.05
2022-08-03T16:47:09.011Z,43.44
2022-08-03T16:49:56.432Z,43.35
2022-08-03T16:52:30.209Z,43.32
2022-08-03T16:55:02.169Z,43.49
2022-08-03T16:57:58.981Z,43.84
2022-08-03T17:00:32.991Z,44.15
2022-08-03T17:03:12.384Z,44.26
2022-08-03T17:05:52.305Z,44.09
2022-08-03T17:08:26.692Z,44.30
2022-08-03T17:10:59.185Z,44.49
2022-08-03T17:13:39.347Z,44.96
2022-08-03T17:16:15.348Z,44.62
2022-08-03T17:18:53.637Z,45.04
2022-08-03T17:21:30.995Z,45.23
2022-08-03T17:24:12.328Z,45.25
2022-08-03T17:26:49.907Z,45.51
2022-08-03T17:29:25.296Z,45.93
2022-08-03T17:32:06.569Z,46.04
2022-08-03T17:34:44.658Z,46.01
2022-08-03T17:37:49.914Z,46.30
2022-08-03T17:40:12.114Z,46.33
2022-08-03T17:42:50.983Z,46.81
2022-08-03T17:45:23.394Z,47.02
2022-08-03T17:48:18.532Z,47.05
2022-08-03T17:50:57.071Z,47.43
2022-08-03T17:53:34.021Z,47.68
2022-08-03T17:56:40.791Z,47.89
2022-08-03T17:59:15.540Z,48.40
2022-08-03T18:02:26.465Z,48.01
2022-08-03T18:05:16.730Z,48.04
2022-08-03T18:08:01.572Z,48.56
2022-08-03T18:10:49.893Z,48.51
2022-08-03T18:13:25.781Z,48.45
2022-08-03T18:16:04.979Z,48.79
2022-08-03T18:18:41.019Z,49.06
2022-08-03T18:21:22.762Z,48.92
2022-08-03T18:23:56.565Z,48.93
2022-08-03T18:26:31.993Z,48.83
2022-08-03T18:29:05.282Z,48.86
2022-08-03T18:32:03.107Z,49.11
2022-08-03T18:34:53.146Z,49.28
2022-08-03T18:37:27.263Z,49.53
2022-08-03T18:40:01.843Z,50.03
2022-08-03T18:42:34.259Z,50.36
2022-08-03T18:45:14.795Z,50.70
2022-08-03T18:48:11.897Z,50.93
2022-08-03T18:50:49.853Z,50.88
2022-08-03T18:54:02.183Z,51.20
2022-08-03T18:56:28.752Z,51.49
2022-08-03T18:59:06.356Z,51.57
2022-08-03T19:01:59.622Z,52.02
2022-08-03T19:04:37.837Z,52.26
2022-08-03T19:07:14.237Z,52.63
2022-08-03T19:09:52.787Z,52.97
2022-08-03T19:12:31.109Z,52.90
2022-08-03T19:15:13.135Z,52.84
2022-08-03T19:17:50.318Z,53.29
2022-08-03T19:20:32.462Z,53.54
2022-08-03T19:23:04.495Z,53.94
2022-08-03T19:25:41.459Z,54.31
2022-08-03T19:28:13.956Z,54.66
2022-08-03T19:30:53.602Z,54.53
2022-08-03T19:33:29.796Z,54.34
2022-08-03T19:36:01.797Z,54.84
2022-08-03T19:38:35.835Z,55.25
2022-08-03T19:41:14.456Z,55.72
2022-08-03T19:43:57.781Z,55.83
2022-08-03T19:46:32.264Z,55.04
2022-08-03T19:49:14.489Z,55.17
2022-08-03T19:52:01.659Z,55.54
2022-08-03T19:54:52.970Z,55.19
2022-08-03T19:57:28.057Z,55.45
2022-08-03T20:00:03.501Z,55.86
2022-08-03T20:02:43.079Z,56.03
2022-08-03T20:05:15.829Z,56.02
2022-08-03T20:07:48.708Z,55.90
2022-08-03T20:10:21.844Z,55.91
2022-08-03T20:12:54.035Z,55.99
2022-08-03T20:15:31.691Z,56.35
2022-08-03T20:18:04.022Z,56.43
2022-08-03T20:20:43.290Z,56.76
2022-08-03T20:23:20.140Z,56.93
2022-08-03T20:25:59.461Z,56.70
2022-08-03T20:28:50.069Z,56.64
2022-08-03T20:31:32.632Z,56.85
2022-08-03T20:34:09.196Z,56.91
2022-08-03T20:36:41.807Z,56.62
2022-08-03T20:39:14.349Z,56.42
2022-08-03T20:41:46.030Z,57.46
2022-08-03T20:44:17.609Z,57.93
2022-08-03T20:46:53.178Z,57.58
2022-08-03T20:49:46.244Z,57.89
2022-08-03T20:52:18.431Z,57.79
2022-08-03T20:54:51.136Z,58.01
2022-08-03T20:57:23.623Z,57.77
2022-08-03T20:59:57.233Z,57.80
2022-08-03T21:02:31.054Z,57.69
2022-08-03T21:05:08.466Z,57.77
2022-08-03T21:08:05.409Z,58.15
2022-08-03T21:10:42.075Z,58.17
2022-08-03T21:16:02.644Z,57.87
2022-08-03T21:18:48.053Z,57.92
2022-08-03T21:21:22.435Z,57.79
2022-08-03T21:23:56.508Z,57.66
2022-08-03T21:26:29.153Z,58.24
2022-08-03T21:29:01.177Z,58.60
2022-08-03T21:31:32.744Z,58.56
2022-08-03T21:34:06.408Z,58.53
2022-08-03T21:36:39.381Z,58.38
2022-08-03T21:39:13.684Z,58.28
2022-08-03T21:41:43.424Z,58.30
2022-08-03T21:44:17.861Z,58.51
2022-08-03T21:46:57.151Z,59.20
2022-08-03T21:50:02.717Z,59.45
2022-08-03T21:52:25.432Z,59.11
2022-08-03T21:55:01.948Z,58.62
2022-08-03T21:57:37.702Z,58.49
2022-08-03T22:00:15.463Z,58.61
2022-08-03T22:02:54.517Z,58.87
2022-08-03T22:05:44.037Z,58.79
2022-08-03T22:08:16.148Z,59.17
2022-08-03T22:10:49.375Z,59.48
2022-08-03T22:13:44.296Z,59.51
2022-08-03T22:16:15.172Z,59.38
2022-08-03T22:18:48.232Z,59.36
2022-08-03T22:21:27.953Z,59.38
2022-08-03T22:24:08.839Z,59.52
2022-08-03T22:27:04.410Z,59.68
2022-08-03T22:29:38.548Z,59.85
2022-08-03T22:32:11.032Z,59.93
2022-08-03T22:34:47.219Z,59.81
2022-08-03T22:37:21.020Z,59.88
2022-08-03T22:39:54.432Z,59.80
2022-08-03T22:42:28.174Z,59.55
2022-08-03T22:44:59.533Z,59.47
2022-08-03T22:47:33.860Z,59.69
2022-08-03T22:50:33.063Z,59.93
2022-08-03T22:52:57.504Z,59.32
2022-08-03T22:55:30.852Z,60.14
2022-08-03T22:58:02.349Z,60.52
2022-08-03T23:00:33.958Z,60.49
2022-08-03T23:03:07.886Z,60.58
2022-08-03T23:06:00.362Z,60.45
2022-08-03T23:08:37.459Z,60.58
2022-08-03T23:11:11.565Z,60.90
2022-08-03T23:13:43.747Z,61.29
2022-08-03T23:16:17.009Z,61.41
2022-08-03T23:19:16.788Z,61.12
2022-08-03T23:22:02.500Z,60.94
2022-08-03T23:24:37.370Z,61.19
2022-08-03T23:27:10.024Z,60.84
2022-08-03T23:29:44.139Z,61.38
2022-08-03T23:32:16.694Z,61.48
2022-08-03T23:35:06.861Z,61.85
2022-08-03T23:38:10.762Z,61.52
2022-08-03T23:40:32.737Z,61.67
2022-08-03T23:43:05.115Z,61.82
2022-08-03T23:45:38.190Z,62.17
2022-08-03T23:48:10.324Z,62.35
2022-08-03T23:50:47.680Z,62.57
2022-08-03T23:53:23.594Z,63.12
2022-08-03T23:56:14.109Z,63.17
2022-08-03T23:58:56.169Z,63.07
